createdAt,value
2023-04-14T00:01:50.231Z,13.70
2023-04-14T00:04:17.307Z,13.70
2023-04-14T00:06:44.312Z,13.70
2023-04-14T00:09:11.509Z,13.70
2023-04-14T00:11:38.279Z,13.60
2023-04-14T00:14:06.005Z,13.60
2023-04-14T00:16:32.986Z,13.60
2023-04-14T00:19:00.248Z,13.60
2023-04-14T00:21:27.135Z,13.60
2023-04-14T00:23:54.090Z,13.60
2023-04-14T00:26:21.597Z,13.50
2023-04-14T00:28:48.349Z,13.50
2023-04-14T00:31:15.788Z,13.50
2023-04-14T00:33:42.685Z,13.30
2023-04-14T00:36:09.621Z,13.30
2023-04-14T00:38:36.506Z,13.30
2023-04-14T00:41:03.404Z,13.20
2023-04-14T00:43:30.210Z,13.10
2023-04-14T00:45:57.116Z,13.20
2023-04-14T00:48:23.975Z,13.20
2023-04-14T00:50:51.386Z,13.20
2023-04-14T00:53:18.362Z,13.20
2023-04-14T00:55:45.226Z,13.20
2023-04-14T00:58:13.606Z,13.20
2023-04-14T01:00:40.645Z,13.20
2023-04-14T01:03:07.770Z,13.20
2023-04-14T01:05:34.718Z,13.20
2023-04-14T01:08:03.545Z,13.10
2023-04-14T01:10:38.127Z,13.20
2023-04-14T01:13:15.922Z,13.10
2023-04-14T01:16:01.527Z,13.10
2023-04-14T01:18:28.276Z,13.10
2023-04-14T01:21:02.807Z,13.10
2023-04-14T01:23:36.911Z,13.00
2023-04-14T01:26:12.430Z,13.00
2023-04-14T01:28:58.932Z,13.00
2023-04-14T01:31:31.461Z,13.00
2023-04-14T01:34:32.641Z,13.00
2023-04-14T01:37:09.117Z,13.00
2023-04-14T01:39:42.736Z,13.00
2023-04-14T01:42:14.939Z,13.00
2023-04-14T01:44:42.797Z,13.00
2023-04-14T01:47:12.995Z,13.00
2023-04-14T01:49:41.874Z,13.00
2023-04-14T01:52:11.434Z,13.00
2023-04-14T01:54:41.494Z,13.00
2023-04-14T01:57:10.579Z,13.00
2023-04-14T01:59:38.872Z,13.00
2023-04-14T02:02:08.948Z,13.00
2023-04-14T02:04:37.961Z,12.90
2023-04-14T02:07:06.310Z,12.90
2023-04-14T02:09:34.092Z,12.80
2023-04-14T02:12:03.452Z,12.80
2023-04-14T02:14:32.033Z,12.80
2023-04-14T02:17:02.477Z,12.70
2023-04-14T02:19:30.634Z,12.70
2023-04-14T02:21:58.510Z,12.70
2023-04-14T02:24:25.462Z,12.60
2023-04-14T02:27:01.961Z,12.60
2023-04-14T02:29:31.450Z,12.60
2023-04-14T02:32:05.487Z,12.50
2023-04-14T02:34:37.976Z,12.50
2023-04-14T02:37:10.969Z,12.40
2023-04-14T02:39:42.843Z,12.40
2023-04-14T02:42:16.655Z,12.30
2023-04-14T02:44:49.012Z,12.30
2023-04-14T02:47:29.800Z,12.30
2023-04-14T02:49:58.780Z,12.30
2023-04-14T02:52:29.376Z,12.30
2023-04-14T02:54:57.875Z,12.30
2023-04-14T02:57:26.367Z,12.20
2023-04-14T02:59:54.783Z,12.20
2023-04-14T03:02:22.902Z,12.10
2023-04-14T03:04:49.929Z,12.10
2023-04-14T03:07:19.354Z,12.10
2023-04-14T03:09:50.659Z,12.10
2023-04-14T03:12:19.148Z,12.10
2023-04-14T03:14:46.849Z,12.10
2023-04-14T03:17:14.966Z,12.10
2023-04-14T03:19:43.506Z,12.00
2023-04-14T03:22:12.880Z,12.00
2023-04-14T03:24:41.954Z,12.00
2023-04-14T03:27:22.028Z,12.00
2023-04-14T03:29:55.045Z,12.00
2023-04-14T03:32:25.241Z,11.90
2023-04-14T03:34:55.030Z,11.80
2023-04-14T03:37:26.297Z,11.80
2023-04-14T03:39:54.081Z,11.70
2023-04-14T03:42:22.449Z,11.70
2023-04-14T03:44:54.161Z,11.60
2023-04-14T03:47:24.788Z,11.60
2023-04-14T03:49:57.598Z,11.60
2023-04-14T03:52:26.578Z,11.60
2023-04-14T03:54:59.757Z,11.60
2023-04-14T03:57:29.288Z,11.60
2023-04-14T03:59:57.108Z,11.60
2023-04-14T04:02:26.123Z,11.60
2023-04-14T04:04:55.782Z,11.60
2023-04-14T04:07:25.615Z,11.60
2023-04-14T04:09:53.350Z,11.50
2023-04-14T04:12:21.270Z,11.50
2023-04-14T04:14:48.239Z,11.50
2023-04-14T04:17:18.416Z,11.50
2023-04-14T04:19:47.263Z,11.50
2023-04-14T04:22:18.709Z,11.50
2023-04-14T04:24:48.012Z,11.50
2023-04-14T04:27:27.077Z,11.50
2023-04-14T04:29:56.005Z,11.50
2023-04-14T04:32:23.810Z,11.60
2023-04-14T04:34:51.454Z,11.60
2023-04-14T04:37:19.563Z,11.60
2023-04-14T04:39:48.575Z,11.60
2023-04-14T04:42:16.497Z,11.60
2023-04-14T04:44:43.481Z,11.70
2023-04-14T04:47:12.024Z,11.60
2023-04-14T04:49:38.847Z,11.70
2023-04-14T04:52:05.811Z,11.70
2023-04-14T04:54:32.907Z,11.70
2023-04-14T04:56:59.953Z,11.70
2023-04-14T04:59:26.994Z,11.70
2023-04-14T05:01:53.906Z,11.70
2023-04-14T05:04:21.676Z,11.60
2023-04-14T05:06:52.102Z,11.60
2023-04-14T05:09:19.242Z,11.60
2023-04-14T05:11:46.354Z,11.60
2023-04-14T05:14:13.197Z,11.60
2023-04-14T05:16:41.386Z,11.60
2023-04-14T05:19:08.736Z,11.70
2023-04-14T05:21:35.604Z,11.70
2023-04-14T05:24:02.366Z,11.60
2023-04-14T05:28:59.303Z,11.70
2023-04-14T05:31:26.235Z,11.80
2023-04-14T05:33:53.041Z,11.80
2023-04-14T05:36:20.446Z,11.80
2023-04-14T05:38:47.164Z,12.00
2023-04-14T05:41:13.983Z,12.00
2023-04-14T05:43:40.821Z,12.00
2023-04-14T05:46:07.595Z,11.90
2023-04-14T05:48:37.713Z,11.90
2023-04-14T05:51:04.668Z,11.90
2023-04-14T05:53:31.472Z,11.90
2023-04-14T05:55:59.012Z,11.90
2023-04-14T05:58:26.752Z,11.90
2023-04-14T06:00:53.730Z,12.00
2023-04-14T06:03:20.724Z,12.10
2023-04-14T06:05:48.303Z,12.10
2023-04-14T06:08:15.060Z,12.20
2023-04-14T06:10:41.819Z,12.30
2023-04-14T06:13:08.798Z,12.40
2023-04-14T06:15:35.635Z,12.40
2023-04-14T06:18:02.409Z,12.50
2023-04-14T06:20:31.954Z,12.50
2023-04-14T06:23:00.817Z,12.60
2023-04-14T06:25:27.663Z,12.60
2023-04-14T06:27:54.557Z,12.70
2023-04-14T06:30:21.318Z,12.80
2023-04-14T06:32:51.619Z,12.80
2023-04-14T06:35:31.921Z,12.90
2023-04-14T06:37:59.536Z,13.00
2023-04-14T06:40:26.306Z,13.00
2023-04-14T06:42:53.163Z,13.10
2023-04-14T06:45:20.033Z,13.00
2023-04-14T06:47:46.897Z,13.00
2023-04-14T06:50:14.482Z,12.90
2023-04-14T06:52:41.271Z,12.80
2023-04-14T06:55:08.442Z,12.80
2023-04-14T06:57:35.449Z,12.90
2023-04-14T07:00:04.263Z,13.00
2023-04-14T07:02:31.230Z,12.90
2023-04-14T07:04:58.140Z,12.90
2023-04-14T07:07:25.020Z,13.00
2023-04-14T07:09:52.021Z,13.10
2023-04-14T07:12:18.959Z,13.10
2023-04-14T07:14:52.026Z,13.20
2023-04-14T07:17:21.885Z,13.20
2023-04-14T07:19:48.623Z,13.30
2023-04-14T07:22:15.714Z,13.40
2023-04-14T07:24:42.493Z,13.40
2023-04-14T07:27:15.900Z,13.50
2023-04-14T07:29:43.052Z,13.50
2023-04-14T07:32:10.041Z,13.60
2023-04-14T07:34:37.173Z,13.70
2023-04-14T07:37:04.085Z,13.80
2023-04-14T07:39:31.221Z,13.80
2023-04-14T07:41:58.798Z,13.90
2023-04-14T07:44:25.908Z,13.90
2023-04-14T07:46:52.721Z,13.80
2023-04-14T07:49:19.455Z,13.90
2023-04-14T07:51:46.266Z,14.00
2023-04-14T07:54:13.041Z,14.10
2023-04-14T07:56:39.893Z,14.20
2023-04-14T07:59:06.613Z,14.30
2023-04-14T08:01:33.397Z,14.40
2023-04-14T08:04:00.675Z,14.40
2023-04-14T08:06:28.459Z,14.50
2023-04-14T08:08:55.217Z,14.50
2023-04-14T08:11:22.026Z,14.50
2023-04-14T08:13:49.946Z,14.50
2023-04-14T08:16:17.193Z,14.30
2023-04-14T08:18:44.069Z,14.30
2023-04-14T08:21:11.386Z,14.50
2023-04-14T08:23:38.239Z,14.70
2023-04-14T08:26:05.182Z,14.90
2023-04-14T08:28:31.986Z,14.90
2023-04-14T08:30:59.825Z,15.00
2023-04-14T08:33:26.626Z,15.10
2023-04-14T08:35:57.844Z,15.30
2023-04-14T08:38:28.127Z,15.30
2023-04-14T08:40:58.941Z,15.40
2023-04-14T08:43:25.797Z,15.40
2023-04-14T08:45:53.461Z,15.40
2023-04-14T08:48:23.627Z,15.40
2023-04-14T08:51:18.812Z,15.20
2023-04-14T08:53:48.324Z,15.30
2023-04-14T08:56:18.140Z,15.50
2023-04-14T08:58:45.309Z,15.60
2023-04-14T09:01:12.623Z,15.80
2023-04-14T09:03:41.072Z,15.80
2023-04-14T09:06:08.342Z,15.90
2023-04-14T09:08:36.250Z,16.00
2023-04-14T09:11:04.105Z,16.00
2023-04-14T09:13:31.673Z,16.00
2023-04-14T09:16:00.118Z,16.00
2023-04-14T09:18:28.730Z,16.00
2023-04-14T09:21:30.184Z,16.00
2023-04-14T09:23:47.263Z,16.10
2023-04-14T09:26:14.614Z,16.10
2023-04-14T09:28:41.407Z,16.00
2023-04-14T09:31:08.674Z,16.10
2023-04-14T09:33:50.388Z,16.20
2023-04-14T09:36:18.752Z,16.30
2023-04-14T09:38:45.537Z,16.20
2023-04-14T09:41:17.271Z,16.30
2023-04-14T09:43:45.770Z,16.60
2023-04-14T09:46:12.915Z,16.70
2023-04-14T09:48:56.522Z,16.80
2023-04-14T09:51:27.926Z,16.80
2023-04-14T09:53:55.129Z,16.50
2023-04-14T09:56:26.972Z,16.60
2023-04-14T09:58:58.598Z,16.60
2023-04-14T10:01:31.064Z,16.70
2023-04-14T10:03:57.912Z,16.80
2023-04-14T10:06:25.217Z,16.80
2023-04-14T10:08:54.253Z,16.80
2023-04-14T10:11:22.895Z,16.60
2023-04-14T10:13:53.671Z,16.50
2023-04-14T10:16:21.168Z,16.60
2023-04-14T10:18:48.042Z,16.70
2023-04-14T10:21:16.206Z,16.80
2023-04-14T10:23:43.862Z,16.90
2023-04-14T10:26:12.780Z,16.90
2023-04-14T10:28:43.252Z,17.10
2023-04-14T10:31:20.326Z,17.00
2023-04-14T10:33:47.307Z,17.00
2023-04-14T10:36:24.493Z,16.90
2023-04-14T10:39:02.195Z,17.10
2023-04-14T10:41:50.765Z,17.00
2023-04-14T10:44:28.538Z,17.00
2023-04-14T10:46:57.121Z,17.00
2023-04-14T10:49:38.241Z,17.00
2023-04-14T10:52:06.681Z,17.10
2023-04-14T10:54:50.834Z,17.30
2023-04-14T10:57:18.871Z,17.50
2023-04-14T10:59:47.546Z,17.60
2023-04-14T11:02:30.748Z,17.60
2023-04-14T11:05:09.357Z,17.60
2023-04-14T11:07:47.459Z,17.40
2023-04-14T11:10:17.376Z,17.20
2023-04-14T11:12:45.419Z,17.20
2023-04-14T11:15:12.913Z,17.20
2023-04-14T11:17:41.059Z,17.20
2023-04-14T11:20:22.114Z,17.20
2023-04-14T11:22:50.652Z,17.00
2023-04-14T11:25:22.164Z,16.90
2023-04-14T11:27:50.737Z,16.80
2023-04-14T11:30:19.144Z,16.90
2023-04-14T11:32:53.728Z,17.10
2023-04-14T11:35:23.172Z,17.10
2023-04-14T11:37:56.644Z,17.20
2023-04-14T11:40:25.125Z,17.20
2023-04-14T11:42:54.219Z,17.20
2023-04-14T11:45:21.179Z,17.30
2023-04-14T11:48:01.074Z,17.30
2023-04-14T11:50:31.462Z,17.20
2023-04-14T11:53:00.107Z,17.10
2023-04-14T11:55:30.781Z,17.20
2023-04-14T11:57:58.099Z,17.40
2023-04-14T12:00:25.421Z,17.50
2023-04-14T12:02:52.484Z,17.40
2023-04-14T12:05:25.484Z,17.40
2023-04-14T12:07:59.106Z,17.30
2023-04-14T12:10:27.134Z,17.30
2023-04-14T12:13:00.950Z,17.30
2023-04-14T12:15:38.741Z,17.40
2023-04-14T12:18:08.161Z,17.50
2023-04-14T12:20:54.704Z,17.50
2023-04-14T12:23:22.211Z,17.40
2023-04-14T12:25:52.282Z,17.40
2023-04-14T12:28:24.617Z,17.30
2023-04-14T12:30:53.261Z,17.30
2023-04-14T12:33:24.057Z,17.40
2023-04-14T12:35:51.516Z,17.60
2023-04-14T12:38:18.503Z,17.60
2023-04-14T12:40:47.700Z,17.60
2023-04-14T12:43:16.815Z,17.70
2023-04-14T12:45:45.968Z,17.80
2023-04-14T12:48:13.625Z,17.80
2023-04-14T12:50:40.592Z,17.60
2023-04-14T12:53:29.740Z,17.70
2023-04-14T12:56:09.340Z,17.80
2023-04-14T12:58:40.672Z,17.90
2023-04-14T13:01:08.731Z,18.00
2023-04-14T13:03:53.063Z,18.10
2023-04-14T13:06:22.707Z,18.30
2023-04-14T13:08:52.148Z,18.40
2023-04-14T13:11:20.617Z,18.30
2023-04-14T13:13:47.864Z,18.10
2023-04-14T13:16:17.879Z,17.90
2023-04-14T13:18:47.638Z,17.90
2023-04-14T13:21:14.656Z,17.80
2023-04-14T13:23:44.429Z,17.80
2023-04-14T13:26:12.100Z,17.80
2023-04-14T13:28:39.217Z,17.80
2023-04-14T13:31:06.112Z,17.80
2023-04-14T13:33:33.280Z,17.90
2023-04-14T13:36:02.731Z,18.10
2023-04-14T13:38:29.929Z,18.00
2023-04-14T13:40:56.959Z,18.10
2023-04-14T13:43:23.831Z,18.10
2023-04-14T13:45:50.740Z,18.10
2023-04-14T13:48:17.592Z,18.10
2023-04-14T13:50:44.503Z,18.10
2023-04-14T13:53:12.386Z,17.90
2023-04-14T13:55:39.400Z,18.10
2023-04-14T13:58:06.422Z,18.00
2023-04-14T14:00:33.285Z,18.10
2023-04-14T14:03:00.581Z,18.10
2023-04-14T14:05:28.009Z,18.20
2023-04-14T14:07:56.266Z,18.30
2023-04-14T14:10:23.055Z,18.40
2023-04-14T14:12:49.856Z,18.50
2023-04-14T14:15:16.712Z,18.50
2023-04-14T14:17:43.706Z,18.60
2023-04-14T14:20:10.761Z,18.50
2023-04-14T14:22:37.551Z,18.50
2023-04-14T14:25:18.363Z,18.30
2023-04-14T14:27:45.979Z,18.20
2023-04-14T14:30:13.182Z,18.10
2023-04-14T14:32:39.981Z,18.10
2023-04-14T14:35:07.609Z,18.10
2023-04-14T14:37:34.364Z,18.20
2023-04-14T14:40:01.396Z,18.30
2023-04-14T14:42:28.369Z,18.30
2023-04-14T14:44:55.396Z,18.20
2023-04-14T14:47:22.324Z,18.10
2023-04-14T14:49:59.901Z,18.10
2023-04-14T14:52:31.874Z,18.00
2023-04-14T14:54:58.736Z,18.10
2023-04-14T14:57:26.274Z,18.10
2023-04-14T14:59:54.009Z,18.20
2023-04-14T15:02:23.704Z,18.10
2023-04-14T15:04:51.869Z,18.00
2023-04-14T15:07:18.665Z,18.00
2023-04-14T15:09:49.807Z,17.90
2023-04-14T15:12:17.568Z,17.80
2023-04-14T15:14:44.892Z,17.80
2023-04-14T15:17:11.830Z,17.80
2023-04-14T15:19:38.737Z,17.70
2023-04-14T15:22:05.693Z,17.80
2023-04-14T15:24:32.828Z,17.70
2023-04-14T15:26:59.903Z,17.70
2023-04-14T15:29:27.083Z,17.70
2023-04-14T15:31:54.310Z,17.50
2023-04-14T15:34:21.586Z,17.50
2023-04-14T15:36:48.592Z,17.60
2023-04-14T15:39:18.608Z,17.70
2023-04-14T15:41:47.632Z,17.60
2023-04-14T15:44:14.646Z,17.60
2023-04-14T15:46:41.385Z,17.60
2023-04-14T15:49:08.658Z,17.60
2023-04-14T15:51:35.467Z,17.40
2023-04-14T15:54:02.407Z,17.40
2023-04-14T15:56:29.476Z,17.30
2023-04-14T15:58:57.492Z,17.20
2023-04-14T16:01:24.448Z,17.20
2023-04-14T16:03:59.238Z,17.20
2023-04-14T16:06:26.630Z,17.20
2023-04-14T16:08:53.689Z,17.00
2023-04-14T16:11:20.616Z,17.10
2023-04-14T16:13:47.476Z,17.20
2023-04-14T16:16:15.786Z,17.10
2023-04-14T16:18:42.986Z,17.10
2023-04-14T16:21:09.957Z,17.10
2023-04-14T16:23:36.965Z,17.10
2023-04-14T16:26:03.935Z,17.00
2023-04-14T16:28:30.679Z,17.10
2023-04-14T16:31:01.444Z,16.90
2023-04-14T16:33:28.936Z,16.80
2023-04-14T16:35:57.143Z,16.80
2023-04-14T16:38:24.156Z,16.90
2023-04-14T16:40:58.345Z,16.90
2023-04-14T16:43:27.928Z,16.90
2023-04-14T16:46:04.055Z,16.80
2023-04-14T16:48:31.350Z,16.90
2023-04-14T16:51:04.629Z,16.90
2023-04-14T16:53:31.676Z,16.90
2023-04-14T16:56:08.483Z,16.90
2023-04-14T16:58:37.097Z,16.70
2023-04-14T17:01:04.940Z,16.60
2023-04-14T17:03:32.049Z,16.50
2023-04-14T17:05:59.025Z,16.50
2023-04-14T17:08:25.841Z,16.40
2023-04-14T17:10:52.733Z,16.20
2023-04-14T17:13:19.647Z,16.20
2023-04-14T17:15:53.194Z,16.20
2023-04-14T17:18:25.618Z,16.20
2023-04-14T17:20:52.775Z,16.20
2023-04-14T17:23:21.951Z,16.20
2023-04-14T17:25:49.104Z,16.10
2023-04-14T17:28:16.163Z,15.90
2023-04-14T17:30:45.657Z,15.90
2023-04-14T17:33:13.130Z,15.80
2023-04-14T17:35:40.234Z,15.80
2023-04-14T17:38:07.494Z,15.80
2023-04-14T17:40:34.356Z,15.80
2023-04-14T17:43:01.321Z,15.80
2023-04-14T17:45:28.620Z,15.80
2023-04-14T17:47:55.447Z,15.80
2023-04-14T17:50:24.211Z,15.80
2023-04-14T17:52:52.077Z,15.80
2023-04-14T17:55:19.998Z,15.70
2023-04-14T17:57:46.856Z,15.80
2023-04-14T18:00:14.773Z,15.80
2023-04-14T18:02:41.821Z,15.70
2023-04-14T18:05:09.629Z,15.60
2023-04-14T18:07:37.029Z,15.50
2023-04-14T18:10:04.655Z,15.50
2023-04-14T18:12:31.540Z,15.50
2023-04-14T18:14:58.398Z,15.40
2023-04-14T18:17:25.820Z,15.50
2023-04-14T18:19:58.070Z,15.50
2023-04-14T18:22:27.477Z,15.60
2023-04-14T18:24:54.331Z,15.50
2023-04-14T18:29:52.887Z,15.50
2023-04-14T18:32:19.820Z,15.40
2023-04-14T18:34:46.706Z,15.40
2023-04-14T18:37:14.666Z,15.30
2023-04-14T18:39:41.569Z,15.30
2023-04-14T18:42:08.572Z,15.20
2023-04-14T18:44:35.568Z,15.10
2023-04-14T18:47:02.468Z,15.20
2023-04-14T18:49:29.395Z,15.30
2023-04-14T18:51:56.684Z,15.20
2023-04-14T18:54:23.575Z,15.20
2023-04-14T18:56:51.124Z,15.10
2023-04-14T18:59:18.579Z,15.10
2023-04-14T19:01:45.446Z,15.20
2023-04-14T19:04:12.312Z,15.20
2023-04-14T19:06:40.458Z,15.10
2023-04-14T19:09:07.517Z,15.10
2023-04-14T19:11:36.085Z,15.10
2023-04-14T19:14:05.854Z,15.20
2023-04-14T19:16:33.050Z,15.10
2023-04-14T19:19:00.338Z,15.10
2023-04-14T19:21:27.354Z,15.20
2023-04-14T19:23:56.605Z,15.10
2023-04-14T19:26:24.414Z,15.10
2023-04-14T19:28:52.971Z,15.00
2023-04-14T19:31:21.454Z,15.00
2023-04-14T19:33:49.096Z,15.00
2023-04-14T19:36:17.418Z,15.00
2023-04-14T19:38:44.567Z,15.00
2023-04-14T19:41:11.582Z,14.80
2023-04-14T19:43:38.478Z,14.80
2023-04-14T19:46:05.513Z,14.80
2023-04-14T19:48:33.165Z,14.70
2023-04-14T19:51:01.869Z,14.60
2023-04-14T19:53:29.456Z,14.70
2023-04-14T19:55:58.056Z,14.60
2023-04-14T19:58:26.861Z,14.60
2023-04-14T20:00:57.067Z,14.50
2023-04-14T20:03:24.558Z,14.50
2023-04-14T20:05:56.780Z,14.50
2023-04-14T20:08:25.222Z,14.60
2023-04-14T20:10:54.324Z,14.60
2023-04-14T20:13:23.701Z,14.60
2023-04-14T20:15:54.059Z,14.60
2023-04-14T20:18:22.630Z,14.60
2023-04-14T20:20:50.137Z,14.50
2023-04-14T20:23:17.157Z,14.50
2023-04-14T20:25:45.053Z,14.60
2023-04-14T20:28:11.928Z,14.60
2023-04-14T20:30:38.814Z,14.50
2023-04-14T20:33:05.899Z,14.40
2023-04-14T20:35:35.867Z,14.30
2023-04-14T20:38:02.821Z,14.40
2023-04-14T20:40:30.789Z,14.40
2023-04-14T20:42:57.586Z,14.40
2023-04-14T20:45:25.448Z,14.40
2023-04-14T20:47:52.532Z,14.30
2023-04-14T20:50:19.346Z,14.20
2023-04-14T20:52:46.556Z,14.20
2023-04-14T20:55:13.569Z,14.20
2023-04-14T20:57:42.624Z,14.20
2023-04-14T21:00:10.371Z,14.10
2023-04-14T21:02:37.819Z,14.00
2023-04-14T21:05:05.865Z,14.00
2023-04-14T21:07:34.233Z,14.10
2023-04-14T21:10:01.466Z,14.20
2023-04-14T21:12:35.397Z,14.20
2023-04-14T21:15:42.168Z,14.20
2023-04-14T21:17:52.060Z,14.10
2023-04-14T21:20:18.852Z,14.10
2023-04-14T21:22:45.688Z,14.10
2023-04-14T21:25:12.480Z,14.20
2023-04-14T21:27:39.465Z,14.00
2023-04-14T21:30:06.954Z,14.00
2023-04-14T21:32:34.165Z,14.10
2023-04-14T21:35:01.113Z,14.10
2023-04-14T21:37:27.849Z,14.10
2023-04-14T21:39:56.130Z,14.10
2023-04-14T21:42:22.979Z,14.10
2023-04-14T21:44:49.731Z,14.00
2023-04-14T21:47:16.660Z,14.00
2023-04-14T21:49:43.503Z,14.00
2023-04-14T21:52:10.254Z,13.90
2023-04-14T21:54:41.412Z,13.90
2023-04-14T21:57:08.246Z,14.00
2023-04-14T21:59:35.081Z,14.00
2023-04-14T22:02:02.013Z,14.10
2023-04-14T22:04:36.673Z,14.10
2023-04-14T22:07:05.636Z,14.00
2023-04-14T22:09:33.390Z,14.00
2023-04-14T22:12:00.632Z,13.90
2023-04-14T22:14:27.753Z,13.90
2023-04-14T22:16:55.048Z,13.90
2023-04-14T22:19:21.942Z,14.00
2023-04-14T22:21:48.734Z,13.90
2023-04-14T22:24:15.528Z,13.90
2023-04-14T22:26:42.270Z,14.00
2023-04-14T22:29:11.456Z,14.00
2023-04-14T22:31:38.428Z,14.00
2023-04-14T22:34:05.315Z,14.00
2023-04-14T22:36:32.314Z,14.10
2023-04-14T22:38:59.306Z,14.10
2023-04-14T22:41:26.305Z,14.00
2023-04-14T22:43:53.047Z,14.10
2023-04-14T22:46:20.025Z,14.10
2023-04-14T22:48:46.940Z,14.00
2023-04-14T22:51:13.855Z,13.90
2023-04-14T22:53:41.316Z,14.00
2023-04-14T22:56:08.708Z,14.00
2023-04-14T22:58:39.373Z,14.00
2023-04-14T23:01:19.131Z,13.90
2023-04-14T23:03:51.212Z,14.00
2023-04-14T23:06:20.009Z,14.00
2023-04-14T23:08:50.982Z,14.00
2023-04-14T23:11:20.682Z,14.10
2023-04-14T23:13:48.990Z,14.10
2023-04-14T23:16:20.056Z,14.10
2023-04-14T23:18:52.362Z,14.10
2023-04-14T23:21:22.524Z,13.90
2023-04-14T23:23:50.528Z,13.90
2023-04-14T23:26:19.540Z,14.00
2023-04-14T23:28:47.038Z,14.00
2023-04-14T23:31:13.969Z,14.10
2023-04-14T23:33:41.092Z,14.00
2023-04-14T23:36:08.151Z,14.10
2023-04-14T23:38:35.054Z,14.10
2023-04-14T23:41:02.241Z,14.10
2023-04-14T23:43:31.915Z,14.00
2023-04-14T23:45:58.654Z,14.10
2023-04-14T23:48:26.850Z,14.00
2023-04-14T23:50:58.974Z,14.00
2023-04-14T23:53:30.324Z,14.00
2023-04-14T23:55:57.239Z,14.00
2023-04-14T23:58:26.919Z,14.10
